Time;durP1;ratioP1;P1;durP2;ratioP2;P2;SDS_P1;SDS_P2;PMS_P1;PMS_P2;Temp;Humidity;BMP_temperature;BMP_pressure;BME280_temperature;BME280_humidity;BME280_pressure;Samples;Min_cycle;Max_cycle;Signal;HPM_P1;HPM_P2
2022/03/24 00:01:24;;;;;;;;;;;;;;;;;;5055158;28;20037;-74
2022/03/24 00:03:52;;;;;;;;;;;;;;;;;;5054946;28;19948;-73
2022/03/24 00:06:19;;;;;;;;;;;;;;;;;;5054636;28;19958;-73
2022/03/24 00:08:54;;;;;;;;;;;;;;;;;;5054189;28;19945;-71
2022/03/24 00:11:21;;;;;;;;;;;;;;;;;;5054729;28;20425;-73
2022/03/24 00:13:50;;;;;;;;;;;;;;;;;;5054404;28;20540;-70
2022/03/24 00:16:19;;;;;;;;;;;;;;;;;;5054569;28;19948;-71
2022/03/24 00:18:46;;;;;;;;;;;;;;;;;;5054547;28;19949;-74
2022/03/24 00:21:16;;;;;;;;;;;;;;;;;;5053316;28;20407;-74
2022/03/24 00:23:44;;;;;;;;;;;;;;;;;;5054311;28;20028;-74
2022/03/24 00:26:12;;;;;;;;;;;;;;;;;;5053312;28;20024;-74
2022/03/24 00:28:40;;;;;;;;;;;;;;;;;;5053543;28;20448;-73
2022/03/24 00:31:15;;;;;;;;;;;;;;;;;;5053094;28;19943;-70
2022/03/24 00:33:43;;;;;;;;;;;;;;;;;;5053957;28;20066;-71
2022/03/24 00:36:10;;;;;;;;;;;;;;;;;;5054158;28;19938;-73
2022/03/24 00:38:38;;;;;;;;;;;;;;;;;;5052752;28;19947;-75
2022/03/24 00:41:07;;;;;;;;;;;;;;;;;;5054180;28;19948;-74
2022/03/24 00:43:34;;;;;;;;;;;;;;;;;;5053971;28;19946;-70
2022/03/24 00:46:04;;;;;;;;;;;;;;;;;;5054160;28;20479;-70
2022/03/24 00:48:31;;;;;;;;;;;;;;;;;;5053056;28;20393;-70
2022/03/24 00:50:59;;;;;;;;;;;;;;;;;;5054395;28;19956;-74
2022/03/24 00:53:29;;;;;;;;;;;;;;;;;;5054213;28;19944;-70
2022/03/24 00:55:58;;;;;;;;;;;;;;;;;;5054072;28;19973;-70
2022/03/24 00:58:26;;;;;;;;;;;;;;;;;;5053781;28;19951;-71
2022/03/24 01:00:54;;;;;;;;;;;;;;;;;;5053810;28;19942;-71
2022/03/24 01:03:22;;;;;;;;;;;;;;;;;;5052698;28;20382;-75
2022/03/24 01:05:49;;;;;;;;;;;;;;;;;;5052773;28;20283;-75
2022/03/24 01:08:18;;;;;;;;;;;;;;;;;;5069314;28;19956;-73
2022/03/24 01:10:47;;;;;;;;;;;;;;;;;;5069215;28;19954;-73
2022/03/24 01:13:21;;;;;;;;;;;;;;;;;;5053791;28;20365;-70
2022/03/24 01:15:49;;;;;;;;;;;;;;;;;;5068852;28;20013;-74
2022/03/24 01:18:19;;;;;;;;;;;;;;;;;;5052091;28;19993;-71
2022/03/24 01:20:48;;;;;;;;;;;;;;;;;;5068710;28;19954;-70
2022/03/24 01:23:16;;;;;;;;;;;;;;;;;;5068539;28;19995;-70
2022/03/24 01:25:45;;;;;;;;;;;;;;;;;;5069152;28;19955;-74
2022/03/24 01:28:13;;;;;;;;;;;;;;;;;;5053500;28;19955;-70
2022/03/24 01:30:41;;;;;;;;;;;;;;;;;;5068575;28;20286;-71
2022/03/24 01:33:12;;;;;;;;;;;;;;;;;;5052345;28;19945;-75
2022/03/24 01:35:40;;;;;;;;;;;;;;;;;;5068362;28;20373;-75
2022/03/24 01:38:09;;;;;;;;;;;;;;;;;;5068245;28;20406;-71
2022/03/24 01:40:37;;;;;;;;;;;;;;;;;;5068641;28;20034;-73
2022/03/24 01:43:07;;;;;;;;;;;;;;;;;;5053057;28;19976;-74
2022/03/24 01:45:37;;;;;;;;;;;;;;;;;;5052859;28;19955;-73
2022/03/24 01:48:06;;;;;;;;;;;;;;;;;;5053501;28;19994;-73
2022/03/24 01:50:34;;;;;;;;;;;;;;;;;;5053268;28;20400;-73
2022/03/24 01:53:01;;;;;;;;;;;;;;;;;;5068508;28;19942;-74
2022/03/24 01:55:33;;;;;;;;;;;;;;;;;;5052136;28;19943;-71
2022/03/24 01:58:01;;;;;;;;;;;;;;;;;;5050860;28;19944;-70
2022/03/24 02:00:29;;;;;;;;;;;;;;;;;;5050566;28;19973;-71
2022/03/24 02:02:59;;;;;;;;;;;;;;;;;;5051316;28;19953;-70
2022/03/24 02:05:26;;;;;;;;;;;;;;;;;;5051649;28;20053;-70
2022/03/24 02:07:54;;;;;;;;;;;;;;;;;;5051776;28;19945;-71
2022/03/24 02:10:21;;;;;;;;;;;;;;;;;;5050637;28;20055;-73
2022/03/24 02:12:52;;;;;;;;;;;;;;;;;;5051236;28;20023;-70
2022/03/24 02:15:20;;;;;;;;;;;;;;;;;;5051313;28;19970;-70
2022/03/24 02:17:48;;;;;;;;;;;;;;;;;;5050892;28;19944;-73
2022/03/24 02:20:16;;;;;;;;;;;;;;;;;;5034860;28;19943;-70
2022/03/24 02:22:44;;;;;;;;;;;;;;;;;;5052681;28;20289;-74
2022/03/24 02:25:12;;;;;;;;;;;;;;;;;;5052339;28;19978;-74
2022/03/24 02:27:40;;;;;;;;;;;;;;;;;;5052653;28;20433;-70
2022/03/24 02:30:08;;;;;;;;;;;;;;;;;;5051161;28;19979;-70
2022/03/24 02:32:35;;;;;;;;;;;;;;;;;;5052093;28;19967;-70
2022/03/24 02:35:06;;;;;;;;;;;;;;;;;;5052626;28;19958;-70
2022/03/24 02:37:34;;;;;;;;;;;;;;;;;;5052270;28;19990;-74
2022/03/24 02:40:04;;;;;;;;;;;;;;;;;;5052375;28;19946;-73
2022/03/24 02:42:32;;;;;;;;;;;;;;;;;;5052264;28;19946;-73
2022/03/24 02:45:02;;;;;;;;;;;;;;;;;;5055378;28;19949;-74
2022/03/24 02:47:30;;;;;;;;;;;;;;;;;;5056829;28;19938;-74
2022/03/24 02:50:00;;;;;;;;;;;;;;;;;;5055150;28;20304;-75
2022/03/24 02:52:29;;;;;;;;;;;;;;;;;;5056732;28;19999;-70
2022/03/24 02:54:57;;;;;;;;;;;;;;;;;;5056325;28;19949;-70
2022/03/24 02:57:24;;;;;;;;;;;;;;;;;;5055926;28;19949;-70
2022/03/24 02:59:53;;;;;;;;;;;;;;;;;;5056316;28;19945;-70
2022/03/24 03:02:21;;;;;;;;;;;;;;;;;;5056080;28;19955;-71
2022/03/24 03:04:49;;;;;;;;;;;;;;;;;;5056428;28;20448;-74
2022/03/24 03:07:17;;;;;;;;;;;;;;;;;;5055972;28;20447;-70
2022/03/24 03:09:46;;;;;;;;;;;;;;;;;;5056068;28;19944;-74
2022/03/24 03:12:13;;;;;;;;;;;;;;;;;;5056301;28;19996;-70
2022/03/24 03:14:41;;;;;;;;;;;;;;;;;;5055538;28;20324;-71
2022/03/24 03:17:09;;;;;;;;;;;;;;;;;;5055897;28;19950;-70
2022/03/24 03:19:39;;;;;;;;;;;;;;;;;;5056032;28;19968;-73
2022/03/24 03:22:10;;;;;;;;;;;;;;;;;;5055078;28;20449;-74
2022/03/24 03:24:40;;;;;;;;;;;;;;;;;;5056252;28;19954;-73
2022/03/24 03:27:08;;;;;;;;;;;;;;;;;;5055660;28;19973;-73
2022/03/24 03:29:36;;;;;;;;;;;;;;;;;;5055805;28;19951;-70
2022/03/24 03:32:04;;;;;;;;;;;;;;;;;;5055591;28;19949;-70
2022/03/24 03:34:31;;;;;;;;;;;;;;;;;;5055434;28;19948;-74
2022/03/24 03:36:59;;;;;;;;;;;;;;;;;;5055369;28;19951;-74
2022/03/24 03:39:26;;;;;;;;;;;;;;;;;;5055550;28;20389;-74
2022/03/24 03:41:54;;;;;;;;;;;;;;;;;;5054247;28;19954;-73
2022/03/24 03:44:22;;;;;;;;;;;;;;;;;;5055346;28;20003;-75
2022/03/24 03:46:51;;;;;;;;;;;;;;;;;;5055727;28;19944;-70
2022/03/24 03:49:19;;;;;;;;;;;;;;;;;;5055417;28;20312;-74
2022/03/24 03:51:51;;;;;;;;;;;;;;;;;;5055174;28;20417;-71
2022/03/24 03:54:20;;;;;;;;;;;;;;;;;;5054091;28;19945;-75
2022/03/24 03:56:48;;;;;;;;;;;;;;;;;;5053621;28;19970;-73
2022/03/24 03:59:16;;;;;;;;;;;;;;;;;;5055234;28;19941;-74
2022/03/24 04:01:43;;;;;;;;;;;;;;;;;;5055117;28;19947;-73
2022/03/24 04:04:13;;;;;;;;;;;;;;;;;;5055176;28;20296;-74
2022/03/24 04:06:41;;;;;;;;;;;;;;;;;;5055223;28;20356;-73
2022/03/24 04:09:08;;;;;;;;;;;;;;;;;;5070593;28;20448;-70
2022/03/24 04:11:38;;;;;;;;;;;;;;;;;;5055131;28;20049;-73
2022/03/24 04:14:07;;;;;;;;;;;;;;;;;;5054601;28;20009;-70
2022/03/24 04:16:34;;;;;;;;;;;;;;;;;;5054882;28;19946;-73
2022/03/24 04:19:05;;;;;;;;;;;;;;;;;;5054295;28;20005;-70
2022/03/24 04:21:36;;;;;;;;;;;;;;;;;;5054547;28;20047;-74
2022/03/24 04:24:03;;;;;;;;;;;;;;;;;;5054493;28;19953;-74
2022/03/24 04:26:31;;;;;;;;;;;;;;;;;;5054984;28;20035;-70
2022/03/24 04:29:00;;;;;;;;;;;;;;;;;;5054690;28;19962;-70
2022/03/24 04:31:30;;;;;;;;;;;;;;;;;;5054132;28;20043;-71
2022/03/24 04:33:57;;;;;;;;;;;;;;;;;;5054495;28;20045;-73
2022/03/24 04:36:24;;;;;;;;;;;;;;;;;;5054364;28;19956;-73
2022/03/24 04:38:52;;;;;;;;;;;;;;;;;;5053989;28;19950;-71
2022/03/24 04:41:19;;;;;;;;;;;;;;;;;;5054566;28;19942;-73
2022/03/24 04:43:48;;;;;;;;;;;;;;;;;;5054284;28;19953;-70
2022/03/24 04:46:16;;;;;;;;;;;;;;;;;;5053757;28;19942;-73
2022/03/24 04:48:45;;;;;;;;;;;;;;;;;;5069523;28;19941;-71
2022/03/24 04:51:12;;;;;;;;;;;;;;;;;;5069560;28;20432;-70
2022/03/24 04:53:40;;;;;;;;;;;;;;;;;;5053876;28;20332;-70
2022/03/24 04:56:07;;;;;;;;;;;;;;;;;;5053850;28;19959;-70
2022/03/24 04:58:34;;;;;;;;;;;;;;;;;;5053776;28;19942;-70
2022/03/24 05:01:02;;;;;;;;;;;;;;;;;;5054011;28;19944;-74
2022/03/24 05:03:30;;;;;;;;;;;;;;;;;;5054114;28;20052;-70
2022/03/24 05:05:57;;;;;;;;;;;;;;;;;;5053976;28;19969;-70
2022/03/24 05:08:26;;;;;;;;;;;;;;;;;;5054012;28;20402;-75
2022/03/24 05:10:55;;;;;;;;;;;;;;;;;;5053570;28;20289;-74
2022/03/24 05:13:23;;;;;;;;;;;;;;;;;;5053439;28;19953;-70
2022/03/24 05:15:51;;;;;;;;;;;;;;;;;;5068850;28;19951;-74
2022/03/24 05:18:18;;;;;;;;;;;;;;;;;;5051106;28;20322;-75
2022/03/24 05:20:47;;;;;;;;;;;;;;;;;;5037953;28;19959;-75
2022/03/24 05:23:18;;;;;;;;;;;;;;;;;;5030457;28;20047;-70
2022/03/24 05:25:48;;;;;;;;;;;;;;;;;;5019499;28;20043;-74
2022/03/24 05:28:16;;;;;;;;;;;;;;;;;;5018095;28;20001;-75
2022/03/24 05:30:43;;;;;;;;;;;;;;;;;;5038319;28;19967;-75
2022/03/24 05:33:14;;;;;;;;;;;;;;;;;;5038297;28;19963;-70
2022/03/24 05:35:42;;;;;;;;;;;;;;;;;;5039459;28;20062;-75
2022/03/24 05:38:12;;;;;;;;;;;;;;;;;;5040201;28;19965;-76
2022/03/24 05:40:40;;;;;;;;;;;;;;;;;;5039540;28;20040;-71
2022/03/24 05:43:10;;;;;;;;;;;;;;;;;;5043055;28;20048;-76
2022/03/24 05:45:38;;;;;;;;;;;;;;;;;;5039912;28;19967;-71
2022/03/24 05:48:07;;;;;;;;;;;;;;;;;;5041304;28;20020;-71
2022/03/24 05:50:53;;;;;;;;;;;;;;;;;;5042688;28;20319;-75
2022/03/24 05:53:28;;;;;;;;;;;;;;;;;;5042284;28;19962;-75
2022/03/24 05:55:57;;;;;;;;;;;;;;;;;;5040308;28;19954;-71
2022/03/24 05:58:24;;;;;;;;;;;;;;;;;;5043000;28;20268;-75
2022/03/24 06:00:55;;;;;;;;;;;;;;;;;;5043228;28;19949;-71
2022/03/24 06:03:27;;;;;;;;;;;;;;;;;;5043639;28;20048;-75
2022/03/24 06:05:59;;;;;;;;;;;;;;;;;;5043404;28;19963;-71
2022/03/24 06:08:26;;;;;;;;;;;;;;;;;;5044175;28;20026;-72
2022/03/24 06:10:53;;;;;;;;;;;;;;;;;;5043963;28;19946;-71
2022/03/24 06:13:22;;;;;;;;;;;;;;;;;;5040371;28;19965;-73
2022/03/24 06:15:50;;;;;;;;;;;;;;;;;;5023180;28;19966;-71
2022/03/24 06:18:18;;;;;;;;;;;;;;;;;;5024251;28;19961;-74
2022/03/24 06:20:49;;;;;;;;;;;;;;;;;;5044005;28;20426;-71
2022/03/24 06:23:16;;;;;;;;;;;;;;;;;;5039508;28;19956;-71
2022/03/24 06:25:44;;;;;;;;;;;;;;;;;;5036163;28;19977;-72
2022/03/24 06:28:15;;;;;;;;;;;;;;;;;;5034100;28;20071;-71
2022/03/24 06:30:44;;;;;;;;;;;;;;;;;;5035494;28;19965;-71
2022/03/24 06:33:12;;;;;;;;;;;;;;;;;;5042638;28;19970;-76
2022/03/24 06:35:39;;;;;;;;;;;;;;;;;;5043516;28;19943;-74
2022/03/24 06:38:07;;;;;;;;;;;;;;;;;;5043830;28;19970;-71
2022/03/24 06:40:36;;;;;;;;;;;;;;;;;;5044506;28;19955;-76
2022/03/24 06:43:03;;;;;;;;;;;;;;;;;;5044472;28;19955;-75
2022/03/24 06:45:31;;;;;;;;;;;;;;;;;;5035330;28;19953;-75
2022/03/24 06:48:09;;;;;;;;;;;;;;;;;;5043678;28;19983;-74
2022/03/24 06:50:36;;;;;;;;;;;;;;;;;;5051068;28;19993;-75
2022/03/24 06:53:04;;;;;;;;;;;;;;;;;;5046015;28;19946;-71
2022/03/24 06:55:33;;;;;;;;;;;;;;;;;;5052107;28;20306;-70
2022/03/24 06:58:02;;;;;;;;;;;;;;;;;;5050724;28;20395;-75
2022/03/24 07:00:31;;;;;;;;;;;;;;;;;;5050701;28;19947;-75
2022/03/24 07:02:58;;;;;;;;;;;;;;;;;;5052329;28;19974;-71
2022/03/24 07:05:26;;;;;;;;;;;;;;;;;;5052377;28;19971;-71
2022/03/24 07:07:54;;;;;;;;;;;;;;;;;;5052278;28;19946;-76
2022/03/24 07:10:22;;;;;;;;;;;;;;;;;;5136044;22;20407;-72
2022/03/24 07:12:49;;;;;;;;;;;;;;;;;;5052521;28;19953;-75
2022/03/24 07:15:18;;;;;;;;;;;;;;;;;;5051488;28;19942;-74
2022/03/24 07:17:45;;;;;;;;;;;;;;;;;;5051182;28;19992;-71
2022/03/24 07:20:21;;;;;;;;;;;;;;;;;;5052008;28;20320;-72
2022/03/24 07:22:49;;;;;;;;;;;;;;;;;;5052637;28;20346;-75
2022/03/24 07:25:19;;;;;;;;;;;;;;;;;;5051833;28;19940;-71
2022/03/24 07:27:54;;;;;;;;;;;;;;;;;;5052567;28;19943;-71
2022/03/24 07:30:21;;;;;;;;;;;;;;;;;;5054096;28;20325;-71
2022/03/24 07:32:49;;;;;;;;;;;;;;;;;;5055888;28;20046;-71
2022/03/24 07:35:18;;;;;;;;;;;;;;;;;;5056391;28;19954;-71
2022/03/24 07:37:47;;;;;;;;;;;;;;;;;;5055788;28;20348;-75
2022/03/24 07:40:18;;;;;;;;;;;;;;;;;;5056055;28;19945;-71
2022/03/24 07:42:45;;;;;;;;;;;;;;;;;;5056163;28;19951;-75
2022/03/24 07:45:13;;;;;;;;;;;;;;;;;;5055408;28;19944;-74
2022/03/24 07:47:40;;;;;;;;;;;;;;;;;;5056115;28;19951;-71
2022/03/24 07:50:08;;;;;;;;;;;;;;;;;;5055671;28;19957;-74
2022/03/24 07:52:35;;;;;;;;;;;;;;;;;;5071163;28;19944;-74
2022/03/24 07:55:03;;;;;;;;;;;;;;;;;;5055828;28;19960;-71
2022/03/24 07:57:30;;;;;;;;;;;;;;;;;;5070922;28;19949;-74
2022/03/24 08:00:01;;;;;;;;;;;;;;;;;;5055513;28;20029;-70
2022/03/24 08:02:31;;;;;;;;;;;;;;;;;;5055527;28;19950;-74
2022/03/24 08:05:00;;;;;;;;;;;;;;;;;;5070994;28;19979;-74
2022/03/24 08:07:30;;;;;;;;;;;;;;;;;;5055307;28;20426;-74
2022/03/24 08:09:58;;;;;;;;;;;;;;;;;;5049170;28;19942;-70
2022/03/24 08:12:26;;;;;;;;;;;;;;;;;;5046901;28;19946;-71
2022/03/24 08:14:56;;;;;;;;;;;;;;;;;;5055067;28;19998;-74
2022/03/24 08:17:27;;;;;;;;;;;;;;;;;;5055634;28;19943;-71
2022/03/24 08:19:55;;;;;;;;;;;;;;;;;;5055346;28;20053;-73
2022/03/24 08:22:23;;;;;;;;;;;;;;;;;;5051886;28;19946;-73
2022/03/24 08:24:50;;;;;;;;;;;;;;;;;;5035615;28;19944;-71
2022/03/24 08:27:20;;;;;;;;;;;;;;;;;;5035516;28;20391;-72
2022/03/24 08:29:48;;;;;;;;;;;;;;;;;;5035769;28;19998;-75
2022/03/24 08:32:16;;;;;;;;;;;;;;;;;;5034998;28;19952;-76
2022/03/24 08:34:43;;;;;;;;;;;;;;;;;;5034820;28;19955;-75
2022/03/24 08:37:11;;;;;;;;;;;;;;;;;;5035460;28;19961;-78
2022/03/24 08:39:38;;;;;;;;;;;;;;;;;;5036802;28;20293;-75
2022/03/24 08:42:06;;;;;;;;;;;;;;;;;;5054618;28;19937;-76
2022/03/24 08:44:34;;;;;;;;;;;;;;;;;;5053823;28;20387;-75
2022/03/24 08:47:01;;;;;;;;;;;;;;;;;;5034878;28;19970;-75
2022/03/24 08:49:29;;;;;;;;;;;;;;;;;;5034880;28;20419;-76
2022/03/24 08:51:56;;;;;;;;;;;;;;;;;;5035003;28;20459;-75
2022/03/24 08:54:26;;;;;;;;;;;;;;;;;;5034901;28;19975;-75
2022/03/24 08:56:53;;;;;;;;;;;;;;;;;;5034613;28;19966;-74
2022/03/24 08:59:21;;;;;;;;;;;;;;;;;;5033950;28;20028;-75
2022/03/24 09:01:49;;;;;;;;;;;;;;;;;;5046315;28;20050;-75
2022/03/24 09:04:18;;;;;;;;;;;;;;;;;;5050096;28;20335;-75
2022/03/24 09:06:48;;;;;;;;;;;;;;;;;;5054178;28;19944;-74
2022/03/24 09:09:16;;;;;;;;;;;;;;;;;;5053788;28;19980;-76
2022/03/24 09:11:45;;;;;;;;;;;;;;;;;;5052904;28;19994;-75
2022/03/24 09:14:13;;;;;;;;;;;;;;;;;;5054009;28;19948;-74
2022/03/24 09:16:43;;;;;;;;;;;;;;;;;;5054042;28;19946;-75
2022/03/24 09:19:15;;;;;;;;;;;;;;;;;;5054294;28;20059;-76
2022/03/24 09:21:44;;;;;;;;;;;;;;;;;;5048437;28;19994;-75
2022/03/24 09:24:13;;;;;;;;;;;;;;;;;;5039213;28;19947;-73
2022/03/24 09:26:40;;;;;;;;;;;;;;;;;;5041810;28;19945;-74
2022/03/24 09:29:09;;;;;;;;;;;;;;;;;;5034222;28;19955;-73
2022/03/24 09:31:36;;;;;;;;;;;;;;;;;;5033999;28;20049;-73
2022/03/24 09:34:04;;;;;;;;;;;;;;;;;;5044868;28;19947;-72
2022/03/24 09:36:31;;;;;;;;;;;;;;;;;;5052413;28;20386;-72
2022/03/24 09:38:58;;;;;;;;;;;;;;;;;;5045807;28;19957;-71
2022/03/24 09:41:26;;;;;;;;;;;;;;;;;;5033776;28;19961;-71
2022/03/24 09:43:54;;;;;;;;;;;;;;;;;;5032582;28;20026;-72
2022/03/24 09:46:21;;;;;;;;;;;;;;;;;;5032144;28;19956;-73
2022/03/24 09:48:49;;;;;;;;;;;;;;;;;;5033819;28;20437;-74
2022/03/24 09:51:16;;;;;;;;;;;;;;;;;;5033345;28;20047;-72
2022/03/24 09:53:44;;;;;;;;;;;;;;;;;;5037695;28;19948;-71
2022/03/24 09:56:14;;;;;;;;;;;;;;;;;;5033927;28;19990;-72
2022/03/24 09:58:44;;;;;;;;;;;;;;;;;;5032749;28;19940;-73
2022/03/24 10:01:15;;;;;;;;;;;;;;;;;;5033462;28;19945;-71
2022/03/24 10:03:43;;;;;;;;;;;;;;;;;;5033099;28;19941;-74
2022/03/24 10:06:11;;;;;;;;;;;;;;;;;;5033406;28;19989;-72
2022/03/24 10:08:38;;;;;;;;;;;;;;;;;;5031889;28;19969;-76
2022/03/24 10:11:06;;;;;;;;;;;;;;;;;;5031812;28;20038;-75
2022/03/24 10:13:34;;;;;;;;;;;;;;;;;;5032065;28;19954;-76
2022/03/24 10:16:02;;;;;;;;;;;;;;;;;;5033148;28;19992;-74
2022/03/24 10:18:29;;;;;;;;;;;;;;;;;;5033415;28;19993;-75
2022/03/24 10:20:57;;;;;;;;;;;;;;;;;;5033234;28;19945;-75
2022/03/24 10:23:24;;;;;;;;;;;;;;;;;;5031993;28;19942;-77
2022/03/24 10:25:52;;;;;;;;;;;;;;;;;;5034192;28;19941;-75
2022/03/24 10:28:24;;;;;;;;;;;;;;;;;;5042075;28;19946;-78
2022/03/24 10:30:52;;;;;;;;;;;;;;;;;;5052409;28;19957;-75
2022/03/24 10:33:20;;;;;;;;;;;;;;;;;;5052971;28;20388;-75
2022/03/24 10:35:49;;;;;;;;;;;;;;;;;;5053216;28;20296;-75
2022/03/24 10:38:17;;;;;;;;;;;;;;;;;;5052736;28;20432;-75
2022/03/24 10:40:48;;;;;;;;;;;;;;;;;;5048418;28;20387;-76
2022/03/24 10:43:18;;;;;;;;;;;;;;;;;;5049683;28;19960;-77
2022/03/24 10:45:47;;;;;;;;;;;;;;;;;;5052196;28;20033;-75
2022/03/24 10:48:15;;;;;;;;;;;;;;;;;;5051404;28;20034;-76
2022/03/24 10:50:50;;;;;;;;;;;;;;;;;;5052901;28;20311;-75
2022/03/24 10:53:19;;;;;;;;;;;;;;;;;;5052673;28;20414;-74
2022/03/24 10:55:47;;;;;;;;;;;;;;;;;;5052661;28;20026;-74
2022/03/24 10:58:14;;;;;;;;;;;;;;;;;;5052337;28;19939;-74
2022/03/24 11:00:42;;;;;;;;;;;;;;;;;;5051267;28;20034;-75
2022/03/24 11:03:10;;;;;;;;;;;;;;;;;;5052715;28;19994;-74
2022/03/24 11:05:37;;;;;;;;;;;;;;;;;;5055144;28;20400;-74
2022/03/24 11:08:05;;;;;;;;;;;;;;;;;;5056649;28;20382;-74
2022/03/24 11:10:34;;;;;;;;;;;;;;;;;;5056104;28;20127;-74
2022/03/24 11:13:03;;;;;;;;;;;;;;;;;;5056421;28;19937;-75
2022/03/24 11:15:39;;;;;;;;;;;;;;;;;;5056418;28;19974;-73
2022/03/24 11:18:10;;;;;;;;;;;;;;;;;;5056731;28;19979;-74
2022/03/24 11:20:37;;;;;;;;;;;;;;;;;;5056373;28;19936;-74
2022/03/24 11:23:05;;;;;;;;;;;;;;;;;;5055943;28;19992;-74
2022/03/24 11:25:33;;;;;;;;;;;;;;;;;;5056300;28;19942;-74
2022/03/24 11:28:00;;;;;;;;;;;;;;;;;;5056302;28;19942;-74
2022/03/24 11:30:28;;;;;;;;;;;;;;;;;;5056208;28;20507;-75
2022/03/24 11:32:56;;;;;;;;;;;;;;;;;;5056421;28;20382;-74
2022/03/24 11:35:24;;;;;;;;;;;;;;;;;;5055865;28;19948;-74
2022/03/24 11:37:55;;;;;;;;;;;;;;;;;;5056131;28;19939;-75
2022/03/24 11:40:24;;;;;;;;;;;;;;;;;;5055934;28;19952;-73
2022/03/24 11:42:52;;;;;;;;;;;;;;;;;;5056049;28;19948;-74
2022/03/24 11:45:19;;;;;;;;;;;;;;;;;;5055974;28;20029;-74
2022/03/24 11:47:48;;;;;;;;;;;;;;;;;;5055949;28;20037;-74
2022/03/24 11:50:17;;;;;;;;;;;;;;;;;;5055753;28;20324;-74
2022/03/24 11:52:45;;;;;;;;;;;;;;;;;;5055946;28;20039;-74
2022/03/24 11:55:12;;;;;;;;;;;;;;;;;;5055804;28;19944;-72
2022/03/24 11:57:41;;;;;;;;;;;;;;;;;;5055040;28;20034;-72
2022/03/24 12:00:09;;;;;;;;;;;;;;;;;;5055499;28;19945;-72
2022/03/24 12:02:37;;;;;;;;;;;;;;;;;;5055496;28;19938;-73
2022/03/24 12:05:04;;;;;;;;;;;;;;;;;;5055040;28;19952;-74
2022/03/24 12:07:31;;;;;;;;;;;;;;;;;;5055284;28;19943;-73
2022/03/24 12:10:00;;;;;;;;;;;;;;;;;;5054592;28;20364;-74
2022/03/24 12:12:30;;;;;;;;;;;;;;;;;;5054101;28;19947;-74
2022/03/24 12:14:58;;;;;;;;;;;;;;;;;;5055177;28;19948;-74
2022/03/24 12:17:28;;;;;;;;;;;;;;;;;;5054406;28;20046;-74
2022/03/24 12:19:59;;;;;;;;;;;;;;;;;;5054807;28;19995;-73
2022/03/24 12:22:26;;;;;;;;;;;;;;;;;;5053658;28;20054;-74
2022/03/24 12:24:53;;;;;;;;;;;;;;;;;;5055235;28;19996;-72
2022/03/24 12:27:21;;;;;;;;;;;;;;;;;;5055091;28;20356;-74
2022/03/24 12:29:50;;;;;;;;;;;;;;;;;;5055084;28;19999;-74
2022/03/24 12:32:17;;;;;;;;;;;;;;;;;;5053545;28;20377;-74
2022/03/24 12:34:45;;;;;;;;;;;;;;;;;;5086957;28;20053;-73
2022/03/24 12:37:12;;;;;;;;;;;;;;;;;;5054973;28;19951;-74
2022/03/24 12:39:39;;;;;;;;;;;;;;;;;;5055121;28;19939;-74
2022/03/24 12:42:08;;;;;;;;;;;;;;;;;;5054940;28;19945;-74
2022/03/24 12:44:35;;;;;;;;;;;;;;;;;;5053466;28;20047;-73
2022/03/24 12:47:02;;;;;;;;;;;;;;;;;;5054688;28;19951;-74
2022/03/24 12:49:30;;;;;;;;;;;;;;;;;;5053183;28;20142;-74
2022/03/24 12:52:01;;;;;;;;;;;;;;;;;;5054787;28;19952;-73
2022/03/24 12:54:29;;;;;;;;;;;;;;;;;;5054140;28;20326;-74
2022/03/24 12:56:57;;;;;;;;;;;;;;;;;;5053234;28;20157;-74
2022/03/24 12:59:24;;;;;;;;;;;;;;;;;;5053020;28;19943;-74
2022/03/24 13:01:53;;;;;;;;;;;;;;;;;;5054686;28;19972;-74
2022/03/24 13:04:22;;;;;;;;;;;;;;;;;;5054344;28;19972;-74
2022/03/24 13:06:50;;;;;;;;;;;;;;;;;;5054251;28;19987;-73
2022/03/24 13:09:18;;;;;;;;;;;;;;;;;;5053306;28;20259;-73
2022/03/24 13:11:45;;;;;;;;;;;;;;;;;;5053720;28;20026;-73
2022/03/24 13:14:13;;;;;;;;;;;;;;;;;;5054251;28;19946;-74
2022/03/24 13:16:43;;;;;;;;;;;;;;;;;;5047315;28;19993;-73
2022/03/24 13:19:11;;;;;;;;;;;;;;;;;;5046945;28;19949;-73
2022/03/24 13:21:39;;;;;;;;;;;;;;;;;;5050894;28;20317;-73
2022/03/24 13:24:06;;;;;;;;;;;;;;;;;;5043731;28;20369;-73
2022/03/24 13:26:36;;;;;;;;;;;;;;;;;;5043959;28;19942;-74
2022/03/24 13:29:04;;;;;;;;;;;;;;;;;;5053858;28;19941;-72
2022/03/24 13:31:35;;;;;;;;;;;;;;;;;;5051650;28;19946;-73
2022/03/24 13:34:02;;;;;;;;;;;;;;;;;;5053246;28;19987;-74
2022/03/24 13:36:31;;;;;;;;;;;;;;;;;;5051328;28;20571;-72
2022/03/24 13:38:58;;;;;;;;;;;;;;;;;;5044789;28;19953;-72
2022/03/24 13:41:30;;;;;;;;;;;;;;;;;;5053750;28;19986;-72
2022/03/24 13:43:58;;;;;;;;;;;;;;;;;;5052457;28;20042;-74
2022/03/24 13:46:25;;;;;;;;;;;;;;;;;;5053913;28;20007;-73
2022/03/24 13:48:53;;;;;;;;;;;;;;;;;;5053736;28;19934;-73
2022/03/24 13:51:20;;;;;;;;;;;;;;;;;;5051297;28;19946;-73
2022/03/24 13:53:48;;;;;;;;;;;;;;;;;;5045873;28;20315;-72
2022/03/24 13:56:18;;;;;;;;;;;;;;;;;;5043280;28;19974;-75
2022/03/24 13:58:45;;;;;;;;;;;;;;;;;;5038013;28;19952;-73
2022/03/24 14:01:12;;;;;;;;;;;;;;;;;;5043436;28;19975;-74
2022/03/24 14:03:40;;;;;;;;;;;;;;;;;;5040194;28;19983;-73
2022/03/24 14:06:09;;;;;;;;;;;;;;;;;;5047266;28;20006;-73
2022/03/24 14:08:42;;;;;;;;;;;;;;;;;;5042255;28;20044;-72
2022/03/24 14:11:10;;;;;;;;;;;;;;;;;;5057974;28;19949;-72
2022/03/24 14:13:38;;;;;;;;;;;;;;;;;;5046089;28;20052;-73
2022/03/24 14:16:17;;;;;;;;;;;;;;;;;;5044293;28;20076;-71
2022/03/24 14:18:45;;;;;;;;;;;;;;;;;;5035153;28;19952;-72
2022/03/24 14:21:15;;;;;;;;;;;;;;;;;;5044789;28;19948;-74
2022/03/24 14:23:43;;;;;;;;;;;;;;;;;;5051602;28;19951;-75
2022/03/24 14:26:13;;;;;;;;;;;;;;;;;;5052662;28;20070;-71
2022/03/24 14:28:40;;;;;;;;;;;;;;;;;;5052971;28;20361;-72
2022/03/24 14:31:09;;;;;;;;;;;;;;;;;;5052571;28;19953;-72
2022/03/24 14:33:38;;;;;;;;;;;;;;;;;;5067406;28;20331;-74
2022/03/24 14:36:07;;;;;;;;;;;;;;;;;;5052626;28;19947;-74
2022/03/24 14:38:35;;;;;;;;;;;;;;;;;;5052569;28;19943;-74
2022/03/24 14:41:03;;;;;;;;;;;;;;;;;;5052011;28;19953;-74
2022/03/24 14:43:31;;;;;;;;;;;;;;;;;;5052588;28;19946;-73
2022/03/24 14:45:59;;;;;;;;;;;;;;;;;;5052327;28;20078;-73
2022/03/24 14:48:26;;;;;;;;;;;;;;;;;;5052133;28;19957;-75
2022/03/24 14:50:54;;;;;;;;;;;;;;;;;;5048331;28;19944;-73
2022/03/24 14:53:23;;;;;;;;;;;;;;;;;;5052675;28;19981;-75
2022/03/24 14:55:50;;;;;;;;;;;;;;;;;;5051196;28;19942;-75
2022/03/24 14:58:18;;;;;;;;;;;;;;;;;;5052336;28;19950;-74
2022/03/24 15:00:46;;;;;;;;;;;;;;;;;;5052880;28;20260;-74
2022/03/24 15:03:20;;;;;;;;;;;;;;;;;;5052159;28;19992;-74
2022/03/24 15:05:51;;;;;;;;;;;;;;;;;;5052181;28;20681;-73
2022/03/24 15:08:19;;;;;;;;;;;;;;;;;;5052528;28;20056;-75
2022/03/24 15:10:47;;;;;;;;;;;;;;;;;;5051908;28;19948;-74
2022/03/24 15:13:16;;;;;;;;;;;;;;;;;;5051319;28;20071;-73
2022/03/24 15:16:02;;;;;;;;;;;;;;;;;;5052361;28;20384;-74
2022/03/24 15:18:31;;;;;;;;;;;;;;;;;;5051299;28;19940;-74
2022/03/24 15:20:58;;;;;;;;;;;;;;;;;;5052327;28;20454;-74
2022/03/24 15:23:28;;;;;;;;;;;;;;;;;;5052089;28;19944;-75
2022/03/24 15:25:56;;;;;;;;;;;;;;;;;;5049352;28;19946;-74
2022/03/24 15:28:24;;;;;;;;;;;;;;;;;;5052366;28;19947;-73
2022/03/24 15:30:51;;;;;;;;;;;;;;;;;;5052554;28;19946;-74
2022/03/24 15:33:19;;;;;;;;;;;;;;;;;;5047680;28;19985;-74
2022/03/24 15:35:51;;;;;;;;;;;;;;;;;;5047620;28;19950;-74
2022/03/24 15:38:18;;;;;;;;;;;;;;;;;;5049208;28;20011;-74
2022/03/24 15:40:45;;;;;;;;;;;;;;;;;;5041764;28;20052;-73
2022/03/24 15:43:13;;;;;;;;;;;;;;;;;;5040684;28;20335;-73
2022/03/24 15:45:40;;;;;;;;;;;;;;;;;;5040976;28;19947;-73
2022/03/24 15:48:08;;;;;;;;;;;;;;;;;;5040162;28;19959;-73
2022/03/24 15:50:37;;;;;;;;;;;;;;;;;;5042424;28;20032;-73
2022/03/24 15:53:05;;;;;;;;;;;;;;;;;;5045607;28;20002;-73
2022/03/24 15:55:35;;;;;;;;;;;;;;;;;;5046137;28;19959;-74
2022/03/24 15:58:07;;;;;;;;;;;;;;;;;;5045601;28;19950;-74
2022/03/24 16:00:35;;;;;;;;;;;;;;;;;;5045087;28;19976;-74
2022/03/24 16:03:02;;;;;;;;;;;;;;;;;;5046880;28;19978;-74
2022/03/24 16:05:33;;;;;;;;;;;;;;;;;;5047212;28;20001;-74
2022/03/24 16:08:01;;;;;;;;;;;;;;;;;;5049662;28;19944;-74
2022/03/24 16:10:29;;;;;;;;;;;;;;;;;;5041320;28;19956;-74
2022/03/24 16:12:56;;;;;;;;;;;;;;;;;;5049423;28;19950;-76
2022/03/24 16:15:26;;;;;;;;;;;;;;;;;;5049449;28;19946;-77
2022/03/24 16:17:55;;;;;;;;;;;;;;;;;;5035397;28;19949;-75
2022/03/24 16:20:24;;;;;;;;;;;;;;;;;;5055137;28;19950;-74
2022/03/24 16:22:53;;;;;;;;;;;;;;;;;;5054640;28;19953;-74
2022/03/24 16:25:20;;;;;;;;;;;;;;;;;;5038047;28;20334;-75
2022/03/24 16:27:48;;;;;;;;;;;;;;;;;;5040685;28;20437;-74
2022/03/24 16:30:18;;;;;;;;;;;;;;;;;;5051499;28;20397;-75
2022/03/24 16:32:47;;;;;;;;;;;;;;;;;;5042848;28;20001;-75
2022/03/24 16:35:14;;;;;;;;;;;;;;;;;;5041812;28;19949;-75
2022/03/24 16:37:42;;;;;;;;;;;;;;;;;;5048648;28;19946;-75
2022/03/24 16:40:11;;;;;;;;;;;;;;;;;;5043015;28;19954;-76
2022/03/24 16:42:39;;;;;;;;;;;;;;;;;;5034987;28;19992;-76
2022/03/24 16:45:13;;;;;;;;;;;;;;;;;;5034165;28;20029;-74
2022/03/24 16:47:40;;;;;;;;;;;;;;;;;;5034301;28;19947;-75
2022/03/24 16:50:23;;;;;;;;;;;;;;;;;;5046969;28;20436;-75
2022/03/24 16:52:51;;;;;;;;;;;;;;;;;;5044087;28;20295;-75
2022/03/24 16:55:21;;;;;;;;;;;;;;;;;;5036198;28;19993;-75